Time;durP1;ratioP1;P1;durP2;ratioP2;P2;SDS_P1;SDS_P2;PMS_P1;PMS_P2;Temp;Humidity;BMP_temperature;BMP_pressure;BME280_temperature;BME280_humidity;BME280_pressure;Samples;Min_cycle;Max_cycle;Signal;HPM_P1;HPM_P2
2022/02/13 00:01:10;;;;;;;7.70;7.10;;;-1.50;99.90;;;-0.83;85.61;98580.41;5142398;28;20203;-62
2022/02/13 00:03:43;;;;;;;7.57;6.87;;;-1.50;99.90;;;-0.85;86.12;98588.47;5142954;28;20265;-62
2022/02/13 00:06:17;;;;;;;7.13;6.43;;;-1.50;99.90;;;-0.84;85.73;98580.19;5143582;28;20699;-62
2022/02/13 00:08:50;;;;;;;7.67;7.07;;;-1.60;99.90;;;-0.91;86.56;98578.63;5137299;28;20200;-62
2022/02/13 00:11:24;;;;;;;8.10;7.40;;;-1.60;99.90;;;-0.93;87.06;98580.97;5143829;28;20437;-62
2022/02/13 00:14:00;;;;;;;7.47;6.77;;;-1.60;99.90;;;-1.04;85.75;98580.47;5146009;28;20200;-62
2022/02/13 00:16:35;;;;;;;8.63;7.67;;;-1.70;99.90;;;-1.01;85.84;98574.19;5140623;28;20206;-62
2022/02/13 00:19:08;;;;;;;8.07;7.37;;;-1.70;99.90;;;-1.01;86.01;98571.66;5142629;28;20200;-62
2022/02/13 00:21:58;;;;;;;6.83;6.23;;;-1.70;99.90;;;-0.96;86.02;98575.59;5141070;28;20225;-63
2022/02/13 00:24:31;;;;;;;7.40;6.80;;;-1.60;99.90;;;-0.96;86.65;98573.09;5136277;28;20614;-62
2022/02/13 00:27:05;;;;;;;6.83;6.30;;;-1.60;99.90;;;-0.98;86.52;98564.47;5143773;28;20204;-63
2022/02/13 00:29:38;;;;;;;7.17;6.57;;;-1.70;99.90;;;-1.02;85.86;98577.41;5143654;28;20218;-62
2022/02/13 00:32:11;;;;;;;6.70;5.97;;;-1.70;99.90;;;-1.03;87.05;98567.19;5142637;28;20227;-62
2022/02/13 00:34:44;;;;;;;8.00;7.40;;;-1.70;99.90;;;-1.06;87.15;98565.28;5143540;28;20298;-63
2022/02/13 00:37:19;;;;;;;7.40;6.83;;;-1.70;99.90;;;-1.07;86.35;98565.09;5143055;28;20204;-62
2022/02/13 00:39:52;;;;;;;7.33;6.63;;;-1.80;99.90;;;-1.07;86.96;98560.94;5141294;28;20693;-62
2022/02/13 00:42:25;;;;;;;9.07;7.87;;;-1.80;99.90;;;-1.27;86.64;98558.69;5143271;28;20223;-63
2022/02/13 00:44:59;;;;;;;7.93;7.33;;;-1.90;99.90;;;-1.19;87.33;98560.47;5145181;28;20196;-63
2022/02/13 00:47:32;;;;;;;8.03;7.33;;;-1.90;99.90;;;-1.15;87.61;98561.69;5135218;28;20204;-62
2022/02/13 00:50:07;;;;;;;7.83;7.10;;;-1.80;99.90;;;-1.13;86.84;98557.75;5142809;28;20672;-62
2022/02/13 00:52:41;;;;;;;7.53;6.87;;;-1.80;99.90;;;-1.13;87.68;98561.16;5137655;28;20231;-62
2022/02/13 00:55:14;;;;;;;8.03;7.37;;;-1.80;99.90;;;-1.13;87.16;98566.16;5141260;28;20200;-62
2022/02/13 00:57:47;;;;;;;8.07;7.37;;;-1.80;99.90;;;-1.15;86.55;98562.59;5143559;28;20200;-62
2022/02/13 01:00:20;;;;;;;7.97;7.27;;;-1.90;99.90;;;-1.15;86.85;98557.56;5144397;28;20207;-62
2022/02/13 01:02:53;;;;;;;7.57;6.87;;;-1.80;99.90;;;-1.16;87.02;98564.94;5142344;28;20228;-62
2022/02/13 01:05:26;;;;;;;7.67;7.07;;;-1.90;99.90;;;-1.18;86.62;98563.84;5147647;28;20211;-62
2022/02/13 01:08:01;;;;;;;8.07;7.37;;;-1.90;99.90;;;-1.14;86.69;98554.34;5142945;28;20214;-62
2022/02/13 01:10:34;;;;;;;8.33;7.60;;;-1.90;99.90;;;-1.19;87.23;98560.47;5145715;28;20208;-63
2022/02/13 01:13:07;;;;;;;8.90;8.10;;;-2.00;99.90;;;-1.27;87.04;98555.31;5141251;28;20241;-62
2022/02/13 01:15:40;;;;;;;8.73;7.93;;;-2.00;99.90;;;-1.28;86.62;98559.44;5141801;28;20571;-62
2022/02/13 01:18:14;;;;;;;8.13;7.43;;;-2.00;99.90;;;-1.29;86.36;98554.22;5144113;28;20240;-63
2022/02/13 01:20:47;;;;;;;8.27;7.63;;;-2.00;99.90;;;-1.24;87.67;98551.53;5145699;28;20199;-62
2022/02/13 01:23:21;;;;;;;8.43;7.73;;;-1.90;99.90;;;-1.22;87.55;98551.72;5145795;28;20223;-62
2022/02/13 01:25:55;;;;;;;8.00;7.30;;;-1.90;99.90;;;-1.28;88.02;98553.53;5146429;28;20203;-62
2022/02/13 01:28:28;;;;;;;8.70;7.97;;;-1.90;99.90;;;-1.31;87.41;98555.69;5140539;28;20208;-62
2022/02/13 01:31:02;;;;;;;7.80;7.20;;;-1.90;99.90;;;-1.31;87.21;98550.69;5148503;28;20656;-62
2022/02/13 01:33:37;;;;;;;8.20;7.60;;;-2.00;99.90;;;-1.26;86.98;98547.97;5139928;28;20628;-62
2022/02/13 01:36:11;;;;;;;8.40;7.70;;;-2.00;99.90;;;-1.29;87.22;98549.22;5138690;28;20208;-63
2022/02/13 01:38:45;;;;;;;8.13;7.43;;;-2.00;99.90;;;-1.27;86.78;98550.28;5140852;28;20200;-63
2022/02/13 01:41:18;;;;;;;9.33;8.03;;;-2.00;99.90;;;-1.23;86.71;98538.28;5141911;28;20195;-63
2022/02/13 01:43:51;;;;;;;6.63;6.03;;;-2.10;99.90;;;-1.31;87.55;98538.13;5145130;28;20230;-62
2022/02/13 01:46:25;;;;;;;7.00;6.40;;;-2.10;99.90;;;-1.37;86.46;98533.31;5141053;28;20605;-63
2022/02/13 01:48:58;;;;;;;6.47;5.87;;;-2.20;99.90;;;-1.45;86.23;98534.94;5144962;28;20290;-63
2022/02/13 01:51:31;;;;;;;6.47;5.87;;;-2.20;99.90;;;-1.44;87.12;98531.72;5135523;28;20224;-62
2022/02/13 01:54:06;;;;;;;7.00;6.40;;;-2.20;99.90;;;-1.50;85.92;98526.00;5143091;28;20577;-60
2022/02/13 01:56:39;;;;;;;7.83;7.10;;;-2.30;99.90;;;-1.48;88.00;98529.59;5143846;28;20213;-61
2022/02/13 01:59:13;;;;;;;7.90;6.63;;;-2.20;99.90;;;-1.49;86.99;98515.25;5147502;28;20582;-61
2022/02/13 02:01:46;;;;;;;6.87;6.37;;;-2.20;99.90;;;-1.40;85.98;98516.31;5143560;28;20232;-62
2022/02/13 02:04:19;;;;;;;7.00;6.47;;;-2.20;99.90;;;-1.51;86.19;98519.22;5151482;28;20210;-61
2022/02/13 02:06:53;;;;;;;7.53;6.90;;;-2.20;99.90;;;-1.43;87.16;98512.56;5145939;28;20203;-60
2022/02/13 02:09:27;;;;;;;7.20;6.70;;;-2.20;99.90;;;-1.47;86.12;98516.34;5146476;28;20204;-61
2022/02/13 02:12:04;;;;;;;7.27;6.57;;;-2.30;99.90;;;-1.51;86.99;98508.31;5143799;28;20726;-62
2022/02/13 02:14:37;;;;;;;7.53;6.77;;;-2.40;99.90;;;-1.67;86.41;98505.66;5144687;28;20210;-62
2022/02/13 02:17:10;;;;;;;6.93;6.40;;;-2.40;99.90;;;-1.74;87.22;98501.56;5144682;28;20573;-62
2022/02/13 02:19:43;;;;;;;7.47;6.70;;;-2.50;99.90;;;-1.77;86.00;98502.81;5149430;28;20307;-63
2022/02/13 02:22:17;;;;;;;7.63;6.97;;;-2.50;99.90;;;-1.92;86.90;98502.84;5142006;28;20234;-63
2022/02/13 02:24:52;;;;;;;8.07;7.37;;;-2.60;99.90;;;-1.86;87.93;98503.56;5145366;28;20199;-62
2022/02/13 02:27:26;;;;;;;8.10;7.37;;;-2.60;99.90;;;-1.84;86.69;98502.13;5146098;28;20605;-62
2022/02/13 02:29:59;;;;;;;8.40;7.70;;;-2.50;99.90;;;-1.81;87.19;98497.44;5141861;28;20214;-62
2022/02/13 02:32:32;;;;;;;7.37;6.67;;;-2.50;99.90;;;-1.81;86.92;98499.06;5145687;28;20234;-62
2022/02/13 02:35:06;;;;;;;7.50;6.90;;;-2.50;99.90;;;-1.87;87.12;98489.25;5147026;28;20583;-62
2022/02/13 02:37:40;;;;;;;7.27;6.77;;;-2.50;99.90;;;-1.79;88.05;98484.22;5140179;28;20558;-62
2022/02/13 02:40:17;;;;;;;8.00;7.40;;;-2.40;99.90;;;-1.78;87.75;98481.00;5141445;28;20200;-63
2022/02/13 02:42:50;;;;;;;7.67;7.00;;;-2.40;99.90;;;-1.73;88.09;98487.44;5138999;28;20646;-62
2022/02/13 02:45:23;;;;;;;9.27;8.37;;;-2.40;99.90;;;-1.72;87.95;98479.19;5144948;28;20204;-62
2022/02/13 02:47:56;;;;;;;8.00;7.27;;;-2.30;99.90;;;-1.71;88.90;98474.34;5145943;28;20207;-61
2022/02/13 02:50:30;;;;;;;7.87;7.27;;;-2.30;99.90;;;-1.68;88.55;98479.72;5146605;28;20210;-62
2022/02/13 02:53:04;;;;;;;7.00;6.47;;;-2.40;99.90;;;-1.61;87.42;98474.66;5142377;28;20733;-61
2022/02/13 02:55:39;;;;;;;7.47;6.87;;;-2.40;99.90;;;-1.57;87.09;98473.41;5155993;28;20217;-62
2022/02/13 02:58:12;;;;;;;8.37;7.57;;;-2.40;99.90;;;-1.63;87.91;98467.69;5143736;28;20199;-62
2022/02/13 03:00:45;;;;;;;9.87;8.97;;;-2.40;99.90;;;-1.69;86.71;98472.00;5144819;28;20211;-62
2022/02/13 03:03:19;;;;;;;9.53;8.63;;;-2.40;99.90;;;-1.71;87.45;98464.34;5143653;28;20689;-62
2022/02/13 03:05:52;;;;;;;8.90;8.00;;;-2.50;99.90;;;-1.69;88.25;98462.00;5145512;28;20196;-62
2022/02/13 03:08:26;;;;;;;8.30;7.60;;;-2.50;99.90;;;-1.69;87.01;98462.00;5150795;28;20225;-61
2022/02/13 03:11:01;;;;;;;8.70;7.90;;;-2.50;99.90;;;-1.67;86.13;98461.44;5141699;28;20196;-61
2022/02/13 03:13:34;;;;;;;9.40;8.07;;;-2.50;99.90;;;-1.76;87.18;98465.41;5143018;28;20266;-62
2022/02/13 03:16:08;;;;;;;8.13;7.03;;;-2.40;99.90;;;-1.71;87.37;98453.44;5144191;28;20213;-61
2022/02/13 03:18:41;;;;;;;7.43;6.83;;;-2.50;99.90;;;-1.71;86.54;98464.34;5144609;28;20207;-61
2022/02/13 03:21:14;;;;;;;8.27;7.57;;;-2.50;99.90;;;-1.82;86.92;98459.72;5143087;28;20214;-62
2022/02/13 03:23:47;;;;;;;11.00;9.70;;;-2.60;99.90;;;-1.93;86.96;98457.59;5144611;28;20705;-61
2022/02/13 03:26:24;;;;;;;10.47;9.37;;;-2.60;99.90;;;-1.90;86.57;98458.84;5144828;28;20207;-61
2022/02/13 03:28:57;;;;;;;9.30;8.40;;;-2.70;99.90;;;-1.91;86.73;98453.66;5142812;28;20618;-60
2022/02/13 03:31:30;;;;;;;8.27;7.47;;;-2.60;99.90;;;-1.92;88.19;98455.25;5143339;28;20200;-61
2022/02/13 03:34:03;;;;;;;8.03;7.27;;;-2.60;99.90;;;-1.90;87.96;98451.31;5143964;28;20232;-62
2022/02/13 03:36:37;;;;;;;8.30;7.50;;;-2.60;99.90;;;-1.93;85.84;98450.97;5139823;28;20256;-61
2022/02/13 03:39:11;;;;;;;7.73;7.03;;;-2.70;99.90;;;-1.90;87.10;98453.81;5141536;28;20231;-62
2022/02/13 03:41:45;;;;;;;7.73;7.00;;;-2.60;99.90;;;-1.89;87.34;98458.13;5144102;28;20234;-62
2022/02/13 03:44:18;;;;;;;7.93;7.23;;;-2.60;99.90;;;-1.88;86.94;98462.41;5149411;28;20203;-62
2022/02/13 03:46:52;;;;;;;9.10;8.27;;;-2.60;99.90;;;-1.91;88.62;98453.66;5143694;28;20299;-61
2022/02/13 03:49:25;;;;;;;8.73;7.93;;;-2.60;99.90;;;-2.04;88.35;98456.38;5139277;28;20241;-61
2022/02/13 03:51:58;;;;;;;8.77;7.87;;;-2.70;99.90;;;-2.00;88.13;98460.09;5143876;28;20220;-61
2022/02/13 03:54:31;;;;;;;9.23;8.37;;;-2.60;99.90;;;-1.96;89.19;98458.13;5145350;28;20208;-62
2022/02/13 03:57:06;;;;;;;6.90;6.40;;;-2.60;99.90;;;-1.93;88.74;98455.97;5142611;28;20692;-61
2022/02/13 03:59:39;;;;;;;7.23;6.73;;;-2.60;99.90;;;-1.91;87.35;98453.66;5141707;28;20195;-61
2022/02/13 04:02:12;;;;;;;7.23;6.63;;;-2.60;99.90;;;-1.89;88.40;98458.13;5143906;28;20486;-61
2022/02/13 04:04:45;;;;;;;8.57;7.73;;;-2.60;99.90;;;-1.86;87.51;98460.06;5143386;28;20207;-62
2022/02/13 04:07:19;;;;;;;7.43;6.70;;;-2.60;99.90;;;-1.83;88.36;98456.31;5143205;28;20239;-61
2022/02/13 04:09:52;;;;;;;6.87;6.37;;;-2.60;99.90;;;-1.86;87.52;98448.47;5143235;28;20678;-61
2022/02/13 04:12:26;;;;;;;7.17;6.57;;;-2.60;99.90;;;-1.92;86.69;98452.75;5143062;28;20351;-61
2022/02/13 04:14:59;;;;;;;8.47;7.63;;;-2.70;99.90;;;-1.94;87.82;98454.22;5143378;28;20200;-61
2022/02/13 04:17:32;;;;;;;8.90;8.10;;;-2.70;99.90;;;-1.97;86.57;98453.84;5139743;28;20208;-62
2022/02/13 04:20:07;;;;;;;8.97;8.20;;;-2.70;99.90;;;-1.98;87.14;98453.66;5142303;28;20564;-61
2022/02/13 04:22:40;;;;;;;8.97;8.23;;;-2.70;99.90;;;-2.07;88.65;98451.91;5141676;28;20220;-61
2022/02/13 04:25:14;;;;;;;9.60;8.63;;;-2.70;99.90;;;-2.04;87.44;98447.25;5139098;28;20203;-62
2022/02/13 04:27:48;;;;;;;9.20;8.40;;;-2.70;99.90;;;-2.03;87.81;98448.16;5139492;28;20204;-62
2022/02/13 04:30:22;;;;;;;8.97;8.17;;;-2.70;99.90;;;-2.05;88.93;98449.59;5141893;28;20226;-61
2022/02/13 04:32:56;;;;;;;9.13;8.40;;;-2.70;99.90;;;-2.12;88.95;98443.00;5146142;28;20573;-60
2022/02/13 04:35:29;;;;;;;9.80;8.87;;;-2.70;99.90;;;-2.07;89.23;98446.00;5142791;28;20212;-61
2022/02/13 04:38:02;;;;;;;9.27;8.37;;;-2.70;99.90;;;-2.10;88.74;98446.53;5142539;28;20230;-61
2022/02/13 04:40:35;;;;;;;9.87;9.00;;;-2.80;99.90;;;-2.11;87.47;98441.38;5139827;28;20203;-62
2022/02/13 04:43:10;;;;;;;9.53;8.63;;;-2.70;99.90;;;-2.11;87.82;98443.88;5151266;28;20222;-61
2022/02/13 04:45:43;;;;;;;10.10;9.13;;;-2.80;99.90;;;-2.05;89.28;98442.06;5142907;28;20203;-63
2022/02/13 04:48:16;;;;;;;11.03;10.03;;;-2.70;99.90;;;-2.05;89.38;98442.06;5136837;28;20653;-61
2022/02/13 04:50:49;;;;;;;9.37;8.53;;;-2.60;99.90;;;-1.91;89.08;98436.13;5140396;28;20214;-60
2022/02/13 04:53:22;;;;;;;9.67;8.90;;;-2.60;99.90;;;-1.93;88.42;98435.94;5141901;28;20619;-61
2022/02/13 04:55:57;;;;;;;8.70;7.90;;;-2.60;99.90;;;-1.95;88.13;98432.38;5141156;28;20206;-61
2022/02/13 04:58:31;;;;;;;9.37;8.53;;;-2.60;99.90;;;-1.95;89.33;98422.34;5141476;28;20246;-61
2022/02/13 05:01:04;;;;;;;9.37;8.57;;;-2.60;99.90;;;-1.91;88.14;98429.50;5141162;28;20200;-61
2022/02/13 05:03:38;;;;;;;9.60;8.70;;;-2.60;99.90;;;-1.91;88.06;98424.50;5141507;28;20234;-61
2022/02/13 05:06:11;;;;;;;9.40;8.20;;;-2.60;99.90;;;-1.94;89.38;98419.16;5142064;28;20206;-62
2022/02/13 05:08:44;;;;;;;8.27;7.57;;;-2.60;99.90;;;-1.93;89.07;98417.53;5143434;28;20302;-60
2022/02/13 05:11:17;;;;;;;10.03;9.03;;;-2.60;99.90;;;-1.98;88.73;98417.00;5142681;28;20203;-60
2022/02/13 05:13:51;;;;;;;10.13;9.07;;;-2.70;99.90;;;-1.89;87.10;98415.56;5141223;28;20241;-61
2022/02/13 05:16:25;;;;;;;10.43;8.97;;;-2.80;99.90;;;-2.02;87.35;98408.97;5137295;28;20203;-62
2022/02/13 05:18:58;;;;;;;9.73;8.37;;;-2.80;99.90;;;-2.11;87.85;98414.72;5141103;28;20210;-61
2022/02/13 05:21:31;;;;;;;8.80;7.97;;;-2.90;99.90;;;-2.20;87.86;98412.75;5134702;28;20199;-62
2022/02/13 05:24:05;;;;;;;9.13;8.23;;;-2.90;99.90;;;-2.19;87.87;98409.56;5148205;28;20276;-62
2022/02/13 05:26:38;;;;;;;9.27;8.47;;;-2.80;99.90;;;-2.16;87.99;98410.78;5142210;28;20211;-62
2022/02/13 05:29:13;;;;;;;10.03;9.20;;;-2.80;99.90;;;-2.14;88.57;98405.97;5144123;28;20194;-62
2022/02/13 05:31:46;;;;;;;10.13;9.33;;;-2.80;99.90;;;-2.04;87.53;98407.16;5145046;28;20232;-61
2022/02/13 05:34:19;;;;;;;10.67;9.77;;;-2.80;99.90;;;-2.01;87.39;98410.75;5145937;28;20223;-61
2022/02/13 05:36:52;;;;;;;10.67;9.57;;;-2.80;99.90;;;-2.07;87.61;98403.44;5145715;28;20200;-60
2022/02/13 05:39:26;;;;;;;10.10;9.20;;;-2.80;99.90;;;-2.10;88.37;98408.97;5142886;28;20204;-60
2022/02/13 05:41:59;;;;;;;9.67;8.87;;;-2.80;99.90;;;-2.07;87.35;98398.44;5141557;28;20588;-60
2022/02/13 05:44:33;;;;;;;10.33;9.43;;;-2.80;99.90;;;-2.06;88.00;98398.63;5140866;28;20204;-61
2022/02/13 05:47:07;;;;;;;10.00;9.10;;;-2.80;99.90;;;-2.06;88.65;98397.69;5146132;28;20453;-60
2022/02/13 05:49:40;;;;;;;11.90;10.73;;;-2.80;99.90;;;-2.02;88.32;98398.97;5146478;28;20226;-62
2022/02/13 05:52:13;;;;;;;12.90;11.60;;;-2.80;99.90;;;-2.03;87.67;98398.06;5145102;28;20246;-60
2022/02/13 05:54:46;;;;;;;11.83;10.67;;;-2.80;99.90;;;-2.09;88.36;98400.78;5142056;28;20224;-61
2022/02/13 05:57:19;;;;;;;10.70;9.80;;;-2.80;99.90;;;-2.09;88.10;98402.34;5145545;28;20204;-61
2022/02/13 05:59:53;;;;;;;11.67;10.67;;;-2.80;99.90;;;-2.09;87.20;98404.84;5144748;28;20210;-60
2022/02/13 06:02:26;;;;;;;13.27;10.80;;;-2.70;99.90;;;-2.07;88.61;98400.94;5144957;28;20261;-61
2022/02/13 06:04:59;;;;;;;11.13;10.03;;;-2.70;99.90;;;-2.04;87.60;98394.66;5148732;28;20206;-62
2022/02/13 06:07:38;;;;;;;9.60;8.80;;;-2.80;99.90;;;-2.00;87.63;98402.50;5143867;28;20406;-60
2022/02/13 06:10:12;;;;;;;9.33;8.43;;;-2.80;99.90;;;-2.04;87.79;98396.25;5144984;28;20196;-61
2022/02/13 06:12:45;;;;;;;8.30;7.60;;;-2.80;99.90;;;-2.03;87.04;98388.06;5145919;28;20592;-61
2022/02/13 06:15:20;;;;;;;8.83;8.03;;;-2.90;99.90;;;-2.08;85.88;98401.66;5144350;28;20579;-62
2022/02/13 06:17:53;;;;;;;8.50;7.73;;;-2.90;99.90;;;-2.17;87.69;98393.09;5143667;28;20552;-60
2022/02/13 06:20:26;;;;;;;8.50;7.80;;;-2.90;99.90;;;-2.17;87.24;98393.09;5142875;28;20668;-65
2022/02/13 06:22:59;;;;;;;9.40;8.60;;;-3.00;99.90;;;-2.21;87.13;98399.34;5142719;28;20224;-61
2022/02/13 06:25:32;;;;;;;8.27;7.57;;;-3.00;99.90;;;-2.23;87.78;98392.38;5143962;28;20206;-61
2022/02/13 06:28:09;;;;;;;9.33;8.33;;;-3.00;99.90;;;-2.31;88.29;98394.91;5142082;28;20288;-61
2022/02/13 06:30:44;;;;;;;8.83;7.93;;;-3.00;99.90;;;-2.29;87.72;98388.50;5140123;28;20203;-62
2022/02/13 06:33:17;;;;;;;9.93;8.93;;;-3.00;99.90;;;-2.29;86.89;98388.50;5143446;28;20221;-62
2022/02/13 06:35:50;;;;;;;9.53;8.53;;;-3.00;99.90;;;-2.24;87.86;98385.59;5142448;28;20224;-61
2022/02/13 06:38:23;;;;;;;10.70;9.60;;;-2.90;99.90;;;-2.23;88.68;98382.38;5143872;28;20204;-61
2022/02/13 06:40:56;;;;;;;10.50;9.53;;;-2.90;99.90;;;-2.20;88.15;98381.13;5147036;28;20196;-62
2022/02/13 06:43:31;;;;;;;10.83;9.93;;;-2.90;99.90;;;-2.14;88.26;98373.44;5137477;28;20232;-62
2022/02/13 06:46:06;;;;;;;11.80;10.70;;;-2.80;99.90;;;-2.08;88.59;98377.50;5143502;28;20199;-61
2022/02/13 06:48:40;;;;;;;11.17;10.17;;;-2.70;99.90;;;-2.04;88.78;98372.13;5142817;28;20725;-62
2022/02/13 06:51:13;;;;;;;10.77;9.67;;;-2.70;99.90;;;-1.86;89.02;98373.31;5139189;28;20199;-64
2022/02/13 06:53:46;;;;;;;10.17;9.33;;;-2.60;99.90;;;-1.92;88.75;98362.59;5141118;28;20222;-59
2022/02/13 06:56:19;;;;;;;11.30;10.20;;;-2.50;99.90;;;-1.90;88.11;98368.66;5142272;28;20212;-61
2022/02/13 06:58:52;;;;;;;10.30;9.30;;;-2.50;99.90;;;-1.81;88.90;98368.81;5142299;28;20201;-61
2022/02/13 07:01:26;;;;;;;10.73;9.83;;;-2.40;99.90;;;-1.77;89.87;98372.53;5142088;28;20215;-62
2022/02/13 07:03:59;;;;;;;11.20;10.10;;;-2.30;99.90;;;-1.71;89.67;98374.13;5141342;28;20195;-62
2022/02/13 07:06:32;;;;;;;10.90;9.80;;;-2.30;99.90;;;-1.61;88.39;98371.03;5142476;28;20204;-62
2022/02/13 07:09:07;;;;;;;10.70;9.67;;;-2.20;99.90;;;-1.60;87.85;98368.72;5144292;28;20673;-61
2022/02/13 07:11:40;;;;;;;11.37;10.27;;;-2.20;99.90;;;-1.52;87.68;98362.03;5140504;28;20629;-62
2022/02/13 07:14:13;;;;;;;11.50;9.80;;;-2.10;99.90;;;-1.42;88.09;98362.34;5142310;28;20222;-60
2022/02/13 07:16:47;;;;;;;11.20;10.10;;;-2.00;99.90;;;-1.32;87.91;98368.34;5141554;28;20707;-62
2022/02/13 07:19:20;;;;;;;11.03;10.13;;;-1.90;99.90;;;-1.24;86.43;98365.09;5147949;28;20577;-61
2022/02/13 07:21:53;;;;;;;11.87;10.67;;;-1.80;99.90;;;-1.02;86.86;98369.22;5142329;28;20774;-62
2022/02/13 07:24:27;;;;;;;11.30;10.10;;;-1.60;99.90;;;-0.78;86.91;98362.56;5143226;28;20682;-61
2022/02/13 07:27:00;;;;;;;11.13;10.07;;;-1.40;99.90;;;-0.54;86.80;98366.84;5142554;28;20203;-61
2022/02/13 07:29:33;;;;;;;12.13;11.03;;;-1.10;99.90;;;-0.38;84.99;98359.31;5140964;28;20210;-62
2022/02/13 07:32:09;;;;;;;12.60;11.37;;;-0.90;99.90;;;-0.08;85.36;98362.59;5141514;28;20243;-61
2022/02/13 07:34:42;;;;;;;12.17;11.00;;;-0.60;99.90;;;0.18;83.56;98366.97;5140898;28;20580;-62
2022/02/13 07:37:20;;;;;;;11.63;10.00;;;-0.40;99.90;;;0.37;82.48;98358.09;5137371;28;20647;-61
2022/02/13 07:39:53;;;;;;;12.10;11.00;;;-0.20;99.90;;;0.52;81.68;98351.25;5139487;28;20282;-61
2022/02/13 07:42:26;;;;;;;12.33;11.13;;;-0.10;99.90;;;0.44;80.38;98347.94;5141073;28;20225;-61
2022/02/13 07:44:59;;;;;;;10.93;9.93;;;-0.20;99.90;;;0.72;80.87;98345.75;5140719;28;20200;-62
2022/02/13 07:47:34;;;;;;;11.40;10.30;;;0.00;99.90;;;0.93;80.51;98338.59;5136871;28;20671;-61
2022/02/13 07:50:08;;;;;;;11.10;10.10;;;0.30;99.90;;;0.98;80.07;98332.41;5144125;28;20287;-61
2022/02/13 07:52:41;;;;;;;11.43;10.17;;;0.40;99.90;;;1.19;79.01;98332.03;5138558;28;20221;-61
2022/02/13 07:55:14;;;;;;;10.70;9.77;;;0.60;99.90;;;1.47;79.18;98339.84;5135188;28;20235;-61
2022/02/13 07:57:47;;;;;;;9.90;8.97;;;0.90;99.90;;;1.72;78.49;98328.06;5139136;28;20237;-61
2022/02/13 08:00:20;;;;;;;10.47;9.43;;;1.20;99.90;;;1.88;78.73;98336.34;5144879;28;20233;-61
2022/02/13 08:02:55;;;;;;;10.03;9.03;;;1.30;99.90;;;1.92;75.23;98327.50;5145692;28;20246;-61
2022/02/13 08:05:28;;;;;;;11.43;9.97;;;1.30;99.90;;;1.93;75.29;98329.25;5140653;28;20565;-61
2022/02/13 08:08:01;;;;;;;10.23;9.43;;;1.30;99.90;;;1.94;75.91;98320.94;5139867;28;20696;-61
2022/02/13 08:10:34;;;;;;;10.63;9.63;;;1.20;99.90;;;1.91;75.11;98329.09;5139055;28;20350;-60
2022/02/13 08:13:07;;;;;;;10.93;9.90;;;1.20;99.90;;;2.15;76.23;98318.00;5137212;28;20227;-62
2022/02/13 08:15:40;;;;;;;12.53;11.23;;;1.40;99.90;;;2.17;76.20;98324.06;5138933;28;20595;-62
2022/02/13 08:18:16;;;;;;;14.60;12.57;;;1.60;99.90;;;2.48;75.84;98314.38;5139792;28;20201;-62
2022/02/13 08:20:49;;;;;;;13.27;11.20;;;1.80;99.90;;;2.68;75.22;98313.75;5139814;28;20209;-62
2022/02/13 08:23:22;;;;;;;11.83;10.73;;;2.00;99.90;;;2.81;73.79;98318.34;5139866;28;20224;-62
2022/02/13 08:25:55;;;;;;;11.40;10.40;;;2.10;99.90;;;3.00;73.70;98320.94;5145387;28;20210;-62
2022/02/13 08:28:31;;;;;;;10.57;9.67;;;2.30;99.90;;;3.02;73.39;98315.28;5139370;28;20215;-62
2022/02/13 08:31:04;;;;;;;9.77;8.87;;;2.30;99.90;;;3.12;72.87;98310.34;5141878;28;20261;-61
2022/02/13 08:33:39;;;;;;;9.73;8.90;;;2.40;99.90;;;3.43;73.01;98310.63;5147192;28;20226;-63
2022/02/13 08:36:12;;;;;;;10.37;9.47;;;2.70;99.90;;;3.59;72.68;98308.75;5143326;28;20224;-62
2022/02/13 08:38:45;;;;;;;10.50;9.70;;;2.90;99.90;;;3.80;70.41;98307.28;5137348;28;20207;-62
2022/02/13 08:41:18;;;;;;;11.33;10.43;;;3.10;99.90;;;3.90;70.27;98309.00;5138458;28;20205;-63
2022/02/13 08:43:51;;;;;;;12.07;11.07;;;3.10;99.90;;;3.94;70.14;98300.06;5139234;28;20218;-63
2022/02/13 08:46:24;;;;;;;13.93;12.57;;;3.10;99.90;;;4.00;70.12;98300.59;5143267;28;20647;-63
2022/02/13 08:48:58;;;;;;;12.40;10.17;;;3.10;99.90;;;4.06;69.81;98304.59;5145908;28;20579;-64
2022/02/13 08:51:32;;;;;;;14.27;12.77;;;3.30;99.90;;;4.13;69.43;98297.53;5132967;28;20568;-61
2022/02/13 08:54:05;;;;;;;10.47;9.57;;;3.30;99.90;;;4.28;69.44;98292.16;5141631;28;20207;-62
2022/02/13 08:56:38;;;;;;;9.83;9.03;;;3.40;99.90;;;4.40;68.08;98288.94;5142406;28;20618;-62
2022/02/13 08:59:11;;;;;;;9.80;9.00;;;3.50;99.90;;;4.44;68.93;98286.81;5146238;28;20624;-62
2022/02/13 09:01:44;;;;;;;10.60;9.67;;;3.70;99.90;;;4.57;69.05;98280.28;5148973;28;20577;-64
2022/02/13 09:04:20;;;;;;;9.53;8.73;;;3.80;99.90;;;4.73;68.47;98293.53;5137727;28;20203;-63
2022/02/13 09:06:54;;;;;;;9.40;8.70;;;4.00;99.90;;;4.80;67.99;98285.69;5136212;28;20206;-62
2022/02/13 09:09:27;;;;;;;9.73;8.63;;;4.10;99.90;;;4.96;67.96;98276.13;5144103;28;20202;-64
2022/02/13 09:12:00;;;;;;;13.10;11.90;;;4.20;99.90;;;4.97;67.84;98272.81;5144349;28;20230;-63
2022/02/13 09:14:33;;;;;;;14.13;12.93;;;4.20;99.90;;;5.03;68.42;98271.56;5143588;28;20294;-64
2022/02/13 09:17:06;;;;;;;11.33;10.23;;;4.30;99.90;;;5.18;67.75;98260.22;5146043;28;20221;-64
2022/02/13 09:19:41;;;;;;;11.00;10.00;;;4.50;99.90;;;5.24;67.20;98257.31;5143035;28;20212;-63
2022/02/13 09:22:14;;;;;;;10.30;9.30;;;4.60;99.90;;;5.41;67.33;98242.75;5138194;28;20239;-64
2022/02/13 09:24:47;;;;;;;9.40;8.60;;;4.80;99.90;;;5.77;66.00;98259.19;5140720;28;20707;-63
2022/02/13 09:27:25;;;;;;;10.00;9.20;;;5.10;99.90;;;5.64;67.16;98252.25;5139530;28;20207;-64
2022/02/13 09:29:58;;;;;;;10.30;9.40;;;5.00;99.90;;;5.84;66.00;98246.28;5143230;28;20205;-63
2022/02/13 09:32:31;;;;;;;10.97;10.07;;;5.10;99.90;;;6.01;65.71;98241.69;5138732;28;20224;-62
2022/02/13 09:35:07;;;;;;;10.33;9.30;;;5.30;99.90;;;6.00;65.84;98232.31;5144814;28;20200;-63
2022/02/13 09:37:40;;;;;;;11.07;10.07;;;5.40;99.90;;;6.07;65.07;98234.59;5141139;28;20204;-63
2022/02/13 09:40:14;;;;;;;10.70;9.73;;;5.50;99.90;;;5.96;65.95;98227.78;5142803;28;20214;-63
2022/02/13 09:42:48;;;;;;;11.23;10.23;;;5.40;99.90;;;5.99;66.85;98222.94;5145438;28;20243;-62
2022/02/13 09:45:21;;;;;;;11.43;10.47;;;5.30;99.90;;;6.09;65.71;98217.81;5139211;28;20208;-62
2022/02/13 09:47:54;;;;;;;10.87;9.77;;;5.40;99.90;;;6.26;65.62;98217.50;5141376;28;20207;-63
2022/02/13 09:50:30;;;;;;;10.43;9.63;;;5.60;99.90;;;6.37;64.95;98214.94;5140898;28;20196;-62
2022/02/13 09:53:05;;;;;;;11.60;10.60;;;5.70;99.90;;;6.44;65.15;98218.09;5143059;28;20674;-62
2022/02/13 09:55:38;;;;;;;10.77;9.87;;;5.80;99.90;;;6.51;65.39;98220.34;5140265;28;20709;-63
2022/02/13 09:58:12;;;;;;;11.03;9.93;;;5.90;99.90;;;6.67;65.34;98214.81;5144367;28;20207;-63
2022/02/13 10:00:59;;;;;;;10.70;9.80;;;6.20;99.90;;;6.87;65.31;98206.19;5144165;28;20210;-63
2022/02/13 10:03:34;;;;;;;11.90;10.80;;;6.40;99.90;;;7.18;63.97;98214.50;5142928;28;20235;-63
2022/02/13 10:06:23;;;;;;;10.87;10.00;;;6.60;99.90;;;7.44;63.24;98210.50;5141631;28;20298;-63
2022/02/13 10:08:58;;;;;;;10.80;9.70;;;6.90;99.90;;;7.39;63.59;98206.72;5142706;28;20231;-63
2022/02/13 10:11:33;;;;;;;11.30;10.17;;;6.90;99.90;;;7.53;63.52;98206.06;5145992;28;20563;-63
2022/02/13 10:14:10;;;;;;;12.50;10.17;;;7.00;99.90;;;7.71;64.03;98204.00;5150416;28;20259;-63
2022/02/13 10:16:45;;;;;;;11.37;10.13;;;7.30;99.90;;;7.94;62.98;98202.25;5145698;28;20219;-63
2022/02/13 10:19:20;;;;;;;11.63;10.47;;;7.40;99.90;;;8.18;62.40;98190.38;5146773;28;20199;-64
2022/02/13 10:21:56;;;;;;;11.03;10.03;;;7.70;99.90;;;8.23;62.37;98186.53;5145650;28;20594;-64
2022/02/13 10:24:30;;;;;;;10.53;9.63;;;7.80;99.90;;;8.33;62.07;98176.22;5146953;28;20214;-64
2022/02/13 10:27:11;;;;;;;14.17;10.43;;;7.90;99.90;;;8.49;62.17;98174.00;5146102;28;20582;-64
2022/02/13 10:29:46;;;;;;;12.57;11.37;;;8.00;99.90;;;8.70;61.76;98168.59;5146236;28;20651;-63
2022/02/13 10:32:23;;;;;;;11.60;10.40;;;8.20;99.90;;;8.80;61.38;98163.38;5140078;28;20227;-64
2022/02/13 10:35:04;;;;;;;11.93;10.73;;;8.40;99.90;;;8.92;61.38;98163.34;5146297;28;20659;-63
2022/02/13 10:37:45;;;;;;;11.40;9.83;;;8.50;99.90;;;9.09;61.64;98161.94;5146753;28;20262;-63
2022/02/13 10:40:22;;;;;;;11.80;10.70;;;8.70;99.90;;;9.39;60.79;98158.00;5144273;28;20201;-64
2022/02/13 10:43:03;;;;;;;9.97;9.07;;;9.00;99.90;;;9.59;58.95;98151.66;5145356;28;20223;-64
2022/02/13 10:45:38;;;;;;;11.20;10.03;;;9.10;99.90;;;9.63;59.16;98149.41;5145982;28;20204;-64